Time;durP1;ratioP1;P1;durP2;ratioP2;P2;SDS_P1;SDS_P2;PMS_P1;PMS_P2;Temp;Humidity;BMP_temperature;BMP_pressure;BME280_temperature;BME280_humidity;BME280_pressure;Samples;Min_cycle;Max_cycle;Signal;HPM_P1;HPM_P2
2022/04/15 00:00:36;;;;;;;9.25;4.15;;;9.70;99.40;;;;;;5064777;28;37793;-52
2022/04/15 00:03:05;;;;;;;11.40;4.43;;;9.60;99.40;;;;;;5063796;28;37433;-53
2022/04/15 00:05:36;;;;;;;11.10;4.10;;;9.70;99.50;;;;;;5063815;28;37227;-51
2022/04/15 00:08:04;;;;;;;10.85;4.43;;;9.70;99.50;;;;;;5064933;28;36729;-51
2022/04/15 00:10:32;;;;;;;9.52;4.53;;;9.70;99.50;;;;;;5064465;28;37594;-51
2022/04/15 00:13:00;;;;;;;11.68;4.30;;;9.70;99.60;;;;;;5065999;28;39602;-58
2022/04/15 00:15:29;;;;;;;12.68;3.90;;;9.80;99.50;;;;;;5065484;28;38400;-58
2022/04/15 00:17:56;;;;;;;11.90;4.07;;;9.80;99.60;;;;;;5066315;28;36597;-58
2022/04/15 00:20:24;;;;;;;12.32;4.38;;;9.80;99.50;;;;;;5066112;28;36290;-58
2022/04/15 00:22:52;;;;;;;7.80;3.78;;;9.80;99.50;;;;;;5066205;28;38217;-58
2022/04/15 00:25:21;;;;;;;7.53;3.78;;;9.80;99.60;;;;;;5065503;28;37752;-58
2022/04/15 00:27:48;;;;;;;10.05;4.03;;;9.80;99.70;;;;;;5065598;28;37356;-52
2022/04/15 00:30:19;;;;;;;9.88;4.22;;;10.00;99.60;;;;;;5064243;28;38971;-48
2022/04/15 00:32:47;;;;;;;8.75;3.92;;;9.90;99.70;;;;;;5066000;28;36937;-58
2022/04/15 00:35:15;;;;;;;9.55;3.92;;;9.90;99.80;;;;;;5064690;28;36608;-58
2022/04/15 00:37:42;;;;;;;9.63;3.88;;;10.00;99.80;;;;;;5065111;28;36690;-58
2022/04/15 00:40:11;;;;;;;11.00;3.67;;;10.00;99.80;;;;;;5064637;28;37803;-58
2022/04/15 00:42:39;;;;;;;9.25;4.25;;;10.00;99.70;;;;;;5064510;28;38132;-58
2022/04/15 00:45:09;;;;;;;7.53;4.05;;;10.00;99.70;;;;;;5064877;28;37890;-58
2022/04/15 00:47:51;;;;;;;11.70;3.65;;;9.90;99.80;;;;;;5064343;28;36290;-58
2022/04/15 00:50:20;;;;;;;8.35;3.90;;;9.90;99.90;;;;;;5065990;28;37431;-58
2022/04/15 00:52:49;;;;;;;10.40;4.03;;;9.90;99.90;;;;;;5065695;28;38635;-57
2022/04/15 00:55:18;;;;;;;11.00;4.10;;;9.90;99.90;;;;;;5064731;28;37690;-57
2022/04/15 00:57:52;;;;;;;8.07;3.78;;;10.00;99.90;;;;;;5063802;28;36795;-58
2022/04/15 01:00:21;;;;;;;10.85;4.47;;;10.00;99.90;;;;;;5062826;28;37793;-57
2022/04/15 01:02:50;;;;;;;7.18;3.22;;;10.00;99.90;;;;;;5064009;28;38525;-58
2022/04/15 01:05:18;;;;;;;10.95;4.25;;;10.10;99.90;;;;;;5063930;28;37522;-49
2022/04/15 01:07:50;;;;;;;7.03;3.63;;;10.10;99.90;;;;;;5063319;28;36347;-51
2022/04/15 01:10:19;;;;;;;10.05;4.15;;;10.10;99.90;;;;;;5065483;28;37500;-52
2022/04/15 01:12:53;;;;;;;10.63;3.55;;;10.20;99.90;;;;;;5063748;28;36830;-57
2022/04/15 01:15:25;;;;;;;11.27;4.03;;;10.20;99.90;;;;;;5064933;28;36614;-57
2022/04/15 01:17:55;;;;;;;9.25;4.32;;;10.20;99.90;;;;;;5064037;28;35637;-53
2022/04/15 01:20:23;;;;;;;9.00;3.95;;;10.30;99.90;;;;;;5064428;28;37374;-58
2022/04/15 01:22:58;;;;;;;6.47;3.55;;;10.30;99.90;;;;;;5063181;28;38035;-58
2022/04/15 01:25:26;;;;;;;10.20;3.25;;;10.30;99.90;;;;;;5064107;28;38390;-58
2022/04/15 01:27:53;;;;;;;8.80;3.63;;;10.30;99.90;;;;;;5064057;28;36413;-58
2022/04/15 01:30:22;;;;;;;9.25;3.75;;;10.40;99.90;;;;;;5062711;28;37541;-58
2022/04/15 01:32:49;;;;;;;7.97;2.88;;;10.40;99.90;;;;;;5064658;28;38425;-58
2022/04/15 01:35:19;;;;;;;9.63;2.78;;;10.40;99.90;;;;;;5064983;28;38014;-51
2022/04/15 01:37:48;;;;;;;7.97;2.80;;;10.40;99.90;;;;;;5064982;28;37539;-51
2022/04/15 01:40:18;;;;;;;9.07;3.33;;;10.40;99.90;;;;;;5063840;28;37472;-51
2022/04/15 01:42:47;;;;;;;9.27;2.60;;;10.40;99.90;;;;;;5062978;28;38863;-52
2022/04/15 01:45:14;;;;;;;8.45;3.03;;;10.40;99.90;;;;;;5064296;28;40561;-53
2022/04/15 01:47:42;;;;;;;9.68;2.88;;;10.40;99.90;;;;;;5064025;28;37118;-52
2022/04/15 01:50:11;;;;;;;9.75;2.42;;;10.40;99.90;;;;;;5064934;28;38053;-52
2022/04/15 01:52:38;;;;;;;9.80;3.45;;;10.40;99.90;;;;;;5064778;28;39689;-59
2022/04/15 01:55:07;;;;;;;8.60;3.28;;;10.40;99.90;;;;;;5064195;28;38538;-57
2022/04/15 01:57:36;;;;;;;9.13;2.67;;;10.40;99.90;;;;;;5063378;28;35667;-51
2022/04/15 02:00:04;;;;;;;7.93;2.75;;;10.50;99.90;;;;;;5064319;28;36494;-59
2022/04/15 02:02:32;;;;;;;8.68;2.95;;;10.50;99.90;;;;;;5064599;28;36985;-58
2022/04/15 02:05:00;;;;;;;10.35;2.88;;;10.50;99.90;;;;;;5063590;28;37725;-58
2022/04/15 02:07:28;;;;;;;9.45;3.10;;;10.50;99.90;;;;;;5063446;28;36926;-58
2022/04/15 02:09:55;;;;;;;10.68;3.45;;;10.50;99.90;;;;;;5063627;28;38360;-58
2022/04/15 02:12:23;;;;;;;16.10;4.15;;;10.40;99.90;;;;;;5063392;28;36909;-58
2022/04/15 02:14:52;;;;;;;12.75;3.95;;;10.40;99.90;;;;;;5064117;28;37207;-58
2022/04/15 02:17:21;;;;;;;14.05;4.45;;;10.40;99.90;;;;;;5063875;28;36821;-57
2022/04/15 02:19:50;;;;;;;16.98;4.68;;;10.40;99.90;;;;;;5063534;28;38491;-51
2022/04/15 02:22:18;;;;;;;12.00;4.70;;;10.30;99.90;;;;;;5063813;28;39480;-51
2022/04/15 02:24:45;;;;;;;13.38;5.07;;;10.40;99.90;;;;;;5063997;28;38484;-52
2022/04/15 02:27:12;;;;;;;15.32;5.63;;;10.30;99.90;;;;;;5063315;28;36699;-58
2022/04/15 02:29:40;;;;;;;11.50;4.93;;;10.40;99.90;;;;;;5063369;28;37547;-50
2022/04/15 02:32:09;;;;;;;12.05;5.18;;;10.30;99.90;;;;;;5063636;28;40487;-52
2022/04/15 02:34:37;;;;;;;15.43;5.15;;;10.30;99.90;;;;;;5062834;28;38615;-58
2022/04/15 02:37:05;;;;;;;12.25;5.63;;;10.20;99.90;;;;;;5063749;28;35529;-52
2022/04/15 02:39:33;;;;;;;15.30;5.22;;;10.20;99.90;;;;;;5063380;28;37011;-59
2022/04/15 02:42:01;;;;;;;14.38;5.20;;;10.10;99.90;;;;;;5062841;28;38454;-52
2022/04/15 02:44:29;;;;;;;17.73;5.85;;;10.10;99.90;;;;;;5063714;28;38332;-59
2022/04/15 02:46:58;;;;;;;12.68;5.00;;;10.10;99.90;;;;;;5063204;28;37277;-59
2022/04/15 02:49:28;;;;;;;20.60;6.63;;;10.00;99.90;;;;;;5062825;28;37515;-58
2022/04/15 02:51:56;;;;;;;15.38;5.70;;;10.00;99.90;;;;;;5064013;28;36944;-58
2022/04/15 02:54:26;;;;;;;12.38;6.05;;;9.90;99.90;;;;;;5065295;28;36629;-58
2022/04/15 02:56:54;;;;;;;13.57;8.55;;;9.90;99.90;;;;;;5066786;28;36436;-58
2022/04/15 02:59:21;;;;;;;13.38;9.45;;;9.80;99.90;;;;;;5067226;28;37674;-58
2022/04/15 03:01:50;;;;;;;14.73;10.55;;;9.70;99.90;;;;;;5066748;28;38142;-57
2022/04/15 03:04:17;;;;;;;16.67;9.98;;;9.60;99.90;;;;;;5065281;28;40128;-58
2022/04/15 03:06:46;;;;;;;13.00;9.75;;;9.60;99.90;;;;;;5064895;28;36659;-58
2022/04/15 03:09:13;;;;;;;11.73;8.90;;;9.60;99.90;;;;;;5064844;28;38359;-57
2022/04/15 03:11:41;;;;;;;12.60;8.95;;;9.60;99.90;;;;;;5065153;28;38035;-57
2022/04/15 03:14:08;;;;;;;13.55;9.40;;;9.60;99.90;;;;;;5066277;28;37544;-58
2022/04/15 03:16:36;;;;;;;12.32;7.63;;;9.50;99.90;;;;;;5066076;28;36394;-58
2022/04/15 03:19:04;;;;;;;10.90;7.22;;;9.50;99.90;;;;;;5065297;28;37519;-60
2022/04/15 03:21:32;;;;;;;12.98;8.27;;;9.40;99.90;;;;;;5066633;28;37185;-58
2022/04/15 03:24:00;;;;;;;12.57;6.95;;;9.50;99.90;;;;;;5065939;28;38253;-58
2022/04/15 03:26:28;;;;;;;10.18;5.97;;;9.50;99.90;;;;;;5064006;28;36368;-58
2022/04/15 03:28:55;;;;;;;9.52;5.25;;;9.50;99.90;;;;;;5062599;28;37697;-58
2022/04/15 03:31:23;;;;;;;7.90;4.70;;;9.50;99.90;;;;;;5064869;28;37985;-58
2022/04/15 03:33:50;;;;;;;8.77;5.20;;;9.50;99.90;;;;;;5065895;28;37570;-59
2022/04/15 03:36:20;;;;;;;9.27;4.72;;;9.40;99.90;;;;;;5066068;28;37248;-59
2022/04/15 03:38:47;;;;;;;10.27;5.10;;;9.30;99.90;;;;;;5064867;28;36447;-52
2022/04/15 03:41:16;;;;;;;9.35;4.82;;;9.40;99.90;;;;;;5064125;28;38762;-51
2022/04/15 03:43:43;;;;;;;9.27;4.18;;;9.30;99.90;;;;;;5065295;28;38797;-49
2022/04/15 03:46:11;;;;;;;8.15;4.45;;;9.30;99.90;;;;;;5065774;28;37767;-51
2022/04/15 03:48:38;;;;;;;7.82;4.60;;;9.20;99.90;;;;;;5066314;28;36488;-49
2022/04/15 03:51:07;;;;;;;8.55;4.30;;;9.20;99.90;;;;;;5065539;28;38530;-52
2022/04/15 03:53:35;;;;;;;8.23;3.97;;;9.20;99.90;;;;;;5065926;28;41803;-48
2022/04/15 03:56:02;;;;;;;7.45;4.40;;;9.20;99.90;;;;;;5066224;28;36649;-50
2022/04/15 03:58:31;;;;;;;7.05;4.15;;;9.20;99.90;;;;;;5065944;28;36463;-52
2022/04/15 04:00:59;;;;;;;6.15;3.60;;;9.20;99.90;;;;;;5065446;28;37075;-50
2022/04/15 04:03:26;;;;;;;7.18;3.63;;;9.20;99.90;;;;;;5065586;28;36955;-48
2022/04/15 04:05:53;;;;;;;6.65;3.92;;;9.20;99.90;;;;;;5064744;28;36518;-51
2022/04/15 04:08:21;;;;;;;7.22;3.60;;;9.20;99.90;;;;;;5063772;28;38391;-53
2022/04/15 04:10:50;;;;;;;6.07;3.35;;;9.20;99.90;;;;;;5062432;28;36818;-50
2022/04/15 04:13:20;;;;;;;5.68;3.40;;;9.20;99.90;;;;;;5064272;28;39094;-54
2022/04/15 04:15:49;;;;;;;8.00;3.33;;;9.20;99.90;;;;;;5064737;28;37088;-51
2022/04/15 04:18:20;;;;;;;6.10;3.00;;;9.20;99.90;;;;;;5064125;28;37063;-59
2022/04/15 04:20:48;;;;;;;7.13;3.13;;;9.20;99.90;;;;;;5064223;28;38346;-58
2022/04/15 04:23:15;;;;;;;5.60;3.10;;;9.10;99.90;;;;;;5064997;28;38224;-59
2022/04/15 04:25:43;;;;;;;6.40;2.80;;;9.00;99.90;;;;;;5065549;28;36473;-51
2022/04/15 04:28:11;;;;;;;6.93;3.67;;;9.00;99.90;;;;;;5066250;28;37961;-48
2022/04/15 04:30:39;;;;;;;5.35;2.85;;;8.90;99.90;;;;;;5065789;28;39001;-53
2022/04/15 04:33:08;;;;;;;5.32;2.70;;;8.90;99.90;;;;;;5065261;28;37950;-51
2022/04/15 04:35:37;;;;;;;5.35;2.45;;;8.90;99.90;;;;;;5064793;28;36649;-59
2022/04/15 04:38:05;;;;;;;5.78;2.70;;;8.90;99.90;;;;;;5065305;28;36317;-60
2022/04/15 04:40:33;;;;;;;6.78;2.90;;;8.90;99.90;;;;;;5064566;28;38630;-53
2022/04/15 04:43:01;;;;;;;6.30;3.03;;;8.90;99.90;;;;;;5064976;28;38805;-52
2022/04/15 04:45:29;;;;;;;7.13;2.97;;;8.80;99.90;;;;;;5063869;28;38360;-59
2022/04/15 04:47:58;;;;;;;4.90;2.60;;;8.90;99.90;;;;;;5065818;28;38722;-58
2022/04/15 04:50:28;;;;;;;5.47;2.67;;;8.90;99.90;;;;;;5064058;28;39674;-51
2022/04/15 04:52:55;;;;;;;6.05;2.70;;;8.90;99.90;;;;;;5064839;28;37603;-52
2022/04/15 04:55:22;;;;;;;5.60;2.28;;;8.80;99.90;;;;;;5064198;28;36690;-52
2022/04/15 04:57:50;;;;;;;4.63;2.22;;;8.80;99.90;;;;;;5065018;28;36551;-50
2022/04/15 05:00:19;;;;;;;4.25;2.10;;;8.80;99.90;;;;;;5064268;28;38341;-51
2022/04/15 05:02:46;;;;;;;8.35;2.25;;;8.80;99.90;;;;;;5064302;28;37825;-52
2022/04/15 05:05:14;;;;;;;6.95;2.92;;;8.80;99.90;;;;;;5064392;28;38239;-50
2022/04/15 05:07:43;;;;;;;4.75;2.40;;;8.80;99.90;;;;;;5064550;28;37453;-51
2022/04/15 05:10:11;;;;;;;5.47;2.53;;;8.80;99.90;;;;;;5064098;28;39523;-50
2022/04/15 05:12:38;;;;;;;5.03;2.45;;;8.80;99.90;;;;;;5063523;28;36559;-51
2022/04/15 05:15:07;;;;;;;5.43;2.38;;;8.80;99.90;;;;;;5063738;28;41006;-51
2022/04/15 05:17:34;;;;;;;6.25;2.42;;;8.80;99.90;;;;;;5063885;28;38075;-50
2022/04/15 05:20:01;;;;;;;5.80;2.38;;;8.80;99.90;;;;;;5065056;28;38280;-52
2022/04/15 05:22:29;;;;;;;4.22;2.17;;;8.90;99.90;;;;;;5064136;28;36656;-51
2022/04/15 05:24:57;;;;;;;5.00;2.55;;;8.90;99.90;;;;;;5064987;28;37355;-50
2022/04/15 05:27:25;;;;;;;5.95;2.38;;;8.80;99.90;;;;;;5064476;28;37963;-51
2022/04/15 05:29:52;;;;;;;6.35;2.40;;;8.80;99.90;;;;;;5063292;28;37853;-51
2022/04/15 05:32:23;;;;;;;5.78;2.83;;;8.80;99.90;;;;;;5063545;28;36483;-51
2022/04/15 05:34:50;;;;;;;5.53;3.17;;;8.80;99.90;;;;;;5063948;28;36609;-50
2022/04/15 05:37:20;;;;;;;6.82;3.08;;;8.80;99.90;;;;;;5063777;28;37698;-51
2022/04/15 05:39:48;;;;;;;8.02;2.92;;;8.80;99.90;;;;;;5064581;28;37581;-51
2022/04/15 05:42:16;;;;;;;6.13;2.83;;;8.80;99.90;;;;;;5062284;28;40345;-51
2022/04/15 05:44:46;;;;;;;4.57;2.47;;;8.70;99.90;;;;;;5064640;28;36743;-58
2022/04/15 05:47:14;;;;;;;4.78;2.70;;;8.80;99.90;;;;;;5064078;28;36377;-58
2022/04/15 05:49:44;;;;;;;8.50;3.50;;;8.80;99.90;;;;;;5064707;28;39223;-57
2022/04/15 05:52:11;;;;;;;8.15;3.20;;;8.90;99.90;;;;;;5063874;28;38349;-57
2022/04/15 05:54:39;;;;;;;6.32;3.47;;;8.90;99.90;;;;;;5063626;28;36249;-57
2022/04/15 05:57:06;;;;;;;9.48;3.67;;;9.00;99.90;;;;;;5063144;28;37373;-57
2022/04/15 05:59:35;;;;;;;6.72;3.63;;;9.00;99.90;;;;;;5063859;28;38058;-57
2022/04/15 06:02:07;;;;;;;7.68;3.80;;;9.00;99.90;;;;;;5063494;28;37813;-57
2022/04/15 06:04:35;;;;;;;8.15;4.65;;;9.00;99.90;;;;;;5064001;28;36556;-57
2022/04/15 06:07:02;;;;;;;6.13;3.80;;;9.00;99.90;;;;;;5064071;28;36407;-57
2022/04/15 06:09:30;;;;;;;7.07;3.75;;;9.00;99.90;;;;;;5063329;28;38254;-57
2022/04/15 06:11:57;;;;;;;7.95;4.05;;;9.00;99.90;;;;;;5064524;28;37775;-58
2022/04/15 06:14:25;;;;;;;9.77;4.25;;;9.10;99.90;;;;;;5063790;28;37232;-57
2022/04/15 06:16:55;;;;;;;8.18;5.35;;;9.20;99.90;;;;;;5063890;28;36907;-57
2022/04/15 06:19:22;;;;;;;6.82;4.45;;;9.20;99.90;;;;;;5063472;28;39107;-57
2022/04/15 06:21:50;;;;;;;7.70;4.45;;;9.20;99.90;;;;;;5064008;28;36835;-57
2022/04/15 06:24:18;;;;;;;7.65;4.80;;;9.30;99.90;;;;;;5063692;28;35203;-57
2022/04/15 06:26:45;;;;;;;10.43;5.05;;;9.30;99.90;;;;;;5062682;28;37316;-58
2022/04/15 06:29:12;;;;;;;8.30;5.25;;;9.20;99.90;;;;;;5061047;28;36444;-58
2022/04/15 06:31:40;;;;;;;10.40;5.47;;;9.30;99.90;;;;;;5064904;28;38265;-49
2022/04/15 06:34:09;;;;;;;10.90;5.63;;;9.30;99.90;;;;;;5063629;28;36795;-51
2022/04/15 06:36:36;;;;;;;9.52;5.90;;;9.30;99.90;;;;;;5063632;28;37327;-49
2022/04/15 06:39:03;;;;;;;12.75;7.50;;;9.30;99.90;;;;;;5063372;28;39386;-51
2022/04/15 06:41:31;;;;;;;11.48;6.32;;;9.30;99.90;;;;;;5063298;28;37387;-51
2022/04/15 06:43:58;;;;;;;12.02;6.63;;;9.40;99.90;;;;;;5063793;28;38702;-50
2022/04/15 06:46:25;;;;;;;12.15;6.50;;;9.40;99.90;;;;;;5064329;28;38241;-49
2022/04/15 06:48:53;;;;;;;12.82;7.55;;;9.50;99.90;;;;;;5063822;28;38559;-51
2022/04/15 06:51:22;;;;;;;12.77;7.72;;;9.50;99.90;;;;;;5063364;28;38792;-51
2022/04/15 06:53:49;;;;;;;12.38;7.28;;;9.50;99.90;;;;;;5063260;28;36569;-51
2022/04/15 06:56:16;;;;;;;15.38;8.27;;;9.50;99.90;;;;;;5063858;28;36375;-51
2022/04/15 06:58:44;;;;;;;15.02;8.85;;;9.50;99.90;;;;;;5063313;28;38080;-50
2022/04/15 07:01:12;;;;;;;12.20;7.72;;;9.60;99.90;;;;;;5062623;28;37470;-49
2022/04/15 07:03:40;;;;;;;20.70;8.65;;;9.60;99.90;;;;;;5063339;28;37054;-48
2022/04/15 07:06:07;;;;;;;15.02;7.88;;;9.60;99.90;;;;;;5062382;28;38319;-51
2022/04/15 07:08:36;;;;;;;15.60;8.30;;;9.60;99.90;;;;;;5060957;28;38313;-51
2022/04/15 07:11:06;;;;;;;14.38;7.43;;;9.60;99.90;;;;;;5061170;28;37809;-51
2022/04/15 07:13:33;;;;;;;16.98;7.65;;;9.70;99.90;;;;;;5060913;28;35475;-51
2022/04/15 07:16:04;;;;;;;15.10;8.20;;;9.70;99.90;;;;;;5061201;28;36506;-51
2022/04/15 07:18:31;;;;;;;15.23;7.13;;;9.80;99.90;;;;;;5060769;28;39704;-58
2022/04/15 07:21:00;;;;;;;19.58;8.32;;;9.90;99.90;;;;;;5060788;28;36616;-58
2022/04/15 07:23:27;;;;;;;18.00;7.60;;;10.00;99.90;;;;;;5061381;28;36447;-58
2022/04/15 07:25:56;;;;;;;13.63;7.45;;;10.20;99.90;;;;;;5060609;28;41238;-57
2022/04/15 07:28:23;;;;;;;15.23;7.10;;;10.30;99.90;;;;;;5063203;28;38345;-57
2022/04/15 07:30:51;;;;;;;19.33;8.05;;;10.40;99.70;;;;;;5061002;28;37962;-57
2022/04/15 07:33:19;;;;;;;12.60;6.55;;;10.40;99.40;;;;;;5060903;28;35283;-57
2022/04/15 07:35:48;;;;;;;14.13;7.57;;;10.50;99.20;;;;;;5058175;28;38830;-57
2022/04/15 07:38:15;;;;;;;18.60;7.85;;;10.50;99.00;;;;;;5061966;28;36934;-58
2022/04/15 07:40:42;;;;;;;15.88;7.10;;;10.50;99.10;;;;;;5063135;28;38787;-57
2022/04/15 07:43:11;;;;;;;16.42;6.60;;;10.40;98.80;;;;;;5065607;28;36931;-58
2022/04/15 07:45:39;;;;;;;11.80;6.68;;;10.40;98.90;;;;;;5065941;28;37367;-58
2022/04/15 07:48:07;;;;;;;14.55;6.85;;;10.40;98.80;;;;;;5065283;28;36888;-58
2022/04/15 07:50:34;;;;;;;11.55;5.38;;;10.40;98.80;;;;;;5065992;28;37399;-58
2022/04/15 07:53:01;;;;;;;11.07;4.80;;;10.40;98.60;;;;;;5066688;28;37520;-58
2022/04/15 07:55:29;;;;;;;10.80;4.30;;;10.50;98.10;;;;;;5066068;28;37357;-58
2022/04/15 07:57:56;;;;;;;9.75;4.13;;;10.50;97.90;;;;;;5066291;28;37604;-58
2022/04/15 08:00:25;;;;;;;11.98;4.85;;;10.50;97.50;;;;;;5066160;28;37740;-58
2022/04/15 08:02:53;;;;;;;10.50;3.75;;;10.50;97.50;;;;;;5066298;28;36730;-57
2022/04/15 08:05:20;;;;;;;12.82;4.85;;;10.40;96.90;;;;;;5064910;28;37313;-58
2022/04/15 08:07:47;;;;;;;8.32;3.80;;;10.60;97.00;;;;;;5065115;28;36944;-58
2022/04/15 08:10:15;;;;;;;7.15;3.80;;;10.60;96.70;;;;;;5065379;28;37342;-58
2022/04/15 08:12:49;;;;;;;8.45;3.70;;;10.60;96.70;;;;;;5065272;28;37574;-58
2022/04/15 08:15:16;;;;;;;11.82;3.78;;;10.70;96.70;;;;;;5064455;28;37736;-59
2022/04/15 08:17:45;;;;;;;12.07;4.93;;;11.00;96.70;;;;;;5063611;28;39484;-58
2022/04/15 08:20:13;;;;;;;10.75;4.05;;;11.20;96.50;;;;;;5064076;28;37932;-50
2022/04/15 08:22:40;;;;;;;12.10;4.63;;;11.30;96.20;;;;;;5064125;28;37060;-52
2022/04/15 08:25:08;;;;;;;9.88;4.20;;;11.30;95.40;;;;;;5064262;28;38412;-58
2022/04/15 08:27:36;;;;;;;11.15;4.63;;;11.30;95.40;;;;;;5062780;28;37938;-52
2022/04/15 08:30:04;;;;;;;8.13;4.40;;;11.40;95.90;;;;;;5062051;28;38387;-54
2022/04/15 08:32:34;;;;;;;13.57;5.43;;;11.50;95.70;;;;;;5062442;28;38796;-52
2022/04/15 08:35:03;;;;;;;11.35;5.18;;;11.50;95.10;;;;;;5063312;28;36358;-51
2022/04/15 08:37:30;;;;;;;10.35;4.60;;;11.40;95.10;;;;;;5060854;28;40431;-53
2022/04/15 08:39:58;;;;;;;12.10;4.53;;;11.30;95.10;;;;;;5062759;28;39078;-52
2022/04/15 08:42:26;;;;;;;10.77;4.43;;;11.20;95.30;;;;;;5062131;28;37808;-53
2022/04/15 08:44:56;;;;;;;13.60;4.60;;;11.20;95.50;;;;;;5062427;28;39741;-59
2022/04/15 08:47:24;;;;;;;10.60;4.72;;;11.20;95.60;;;;;;5061204;28;38810;-59
2022/04/15 08:49:52;;;;;;;12.75;4.75;;;11.20;95.30;;;;;;5063427;28;36529;-59
2022/04/15 08:52:21;;;;;;;15.00;4.55;;;11.10;95.20;;;;;;5063111;28;37512;-58
2022/04/15 08:54:48;;;;;;;12.35;4.60;;;11.10;95.10;;;;;;5063093;28;38307;-59
2022/04/15 08:57:16;;;;;;;8.73;4.18;;;11.20;95.00;;;;;;5064401;28;40668;-59
2022/04/15 08:59:43;;;;;;;8.18;4.18;;;11.30;94.90;;;;;;5064547;28;36787;-53
2022/04/15 09:02:14;;;;;;;11.18;4.00;;;11.40;94.60;;;;;;5064871;28;36353;-52
2022/04/15 09:04:41;;;;;;;8.10;3.97;;;11.50;94.30;;;;;;5063632;28;38090;-58
2022/04/15 09:07:09;;;;;;;9.57;3.85;;;11.70;94.90;;;;;;5064008;28;36941;-58
2022/04/15 09:09:37;;;;;;;11.45;4.13;;;12.30;95.00;;;;;;5065439;28;38655;-59
2022/04/15 09:12:16;;;;;;;8.90;4.35;;;12.60;93.40;;;;;;5063679;28;37236;-58
2022/04/15 09:14:45;;;;;;;8.38;4.45;;;12.60;92.60;;;;;;5063653;28;36479;-59
2022/04/15 09:17:13;;;;;;;8.48;4.15;;;12.30;92.50;;;;;;5064127;28;39969;-58
2022/04/15 09:19:41;;;;;;;6.60;3.80;;;12.10;92.40;;;;;;5063432;28;38969;-59
2022/04/15 09:22:18;;;;;;;8.88;4.05;;;11.90;92.60;;;;;;5064309;28;37224;-59
2022/04/15 09:24:49;;;;;;;8.52;4.20;;;12.00;92.60;;;;;;5062879;28;37696;-59
2022/04/15 09:27:16;;;;;;;8.95;4.30;;;12.00;91.80;;;;;;5062566;28;37979;-59
2022/04/15 09:29:44;;;;;;;14.30;4.07;;;12.30;92.60;;;;;;5062103;28;38916;-58
2022/04/15 09:32:14;;;;;;;11.68;4.55;;;12.80;92.60;;;;;;5062846;28;35263;-53
2022/04/15 09:34:54;;;;;;;11.07;4.95;;;13.10;91.20;;;;;;5063475;28;37268;-54
2022/04/15 09:37:22;;;;;;;16.33;5.18;;;13.10;89.80;;;;;;5061977;28;38794;-51
2022/04/15 09:40:12;;;;;;;10.88;4.82;;;13.00;89.80;;;;;;5061074;28;36619;-52
2022/04/15 09:42:46;;;;;;;11.50;5.43;;;12.80;89.60;;;;;;5062138;28;36516;-53
2022/04/15 09:45:15;;;;;;;10.35;4.63;;;12.60;90.70;;;;;;5061230;28;39162;-53
2022/04/15 09:47:43;;;;;;;8.23;4.50;;;12.60;90.60;;;;;;5061323;28;38262;-51
2022/04/15 09:50:23;;;;;;;8.93;4.68;;;12.30;90.60;;;;;;5062052;28;37691;-55
2022/04/15 09:52:52;;;;;;;9.73;5.38;;;12.10;90.80;;;;;;5061058;28;36700;-53
2022/04/15 09:55:23;;;;;;;16.10;5.57;;;12.00;91.70;;;;;;5063028;28;37112;-51
2022/04/15 09:57:52;;;;;;;13.77;5.78;;;12.00;91.80;;;;;;5062501;28;42908;-53
2022/04/15 10:00:20;;;;;;;10.13;4.97;;;12.10;92.30;;;;;;5062893;28;42851;-52
2022/04/15 10:02:49;;;;;;;11.43;5.47;;;12.10;92.30;;;;;;5062307;28;36757;-51
2022/04/15 10:05:20;;;;;;;12.73;4.68;;;12.10;91.80;;;;;;5062926;28;38483;-53
2022/04/15 10:07:49;;;;;;;9.13;4.72;;;12.10;91.50;;;;;;5062515;28;38415;-53
2022/04/15 10:10:17;;;;;;;8.50;4.43;;;12.10;91.40;;;;;;5063102;28;37411;-53
2022/04/15 10:12:48;;;;;;;9.70;4.82;;;12.10;91.00;;;;;;5062419;28;38945;-52
2022/04/15 10:15:16;;;;;;;9.95;3.90;;;12.10;91.20;;;;;;5062856;28;37618;-53
2022/04/15 10:17:44;;;;;;;8.95;4.20;;;12.10;91.40;;;;;;5063126;28;38771;-53
2022/04/15 10:20:12;;;;;;;9.18;3.78;;;12.10;91.30;;;;;;5063619;28;37810;-51
2022/04/15 10:22:41;;;;;;;7.60;3.88;;;12.10;91.10;;;;;;5063366;28;39298;-59
2022/04/15 10:25:09;;;;;;;10.70;3.75;;;12.10;90.70;;;;;;5063073;28;37504;-59
2022/04/15 10:27:37;;;;;;;9.32;4.10;;;12.10;90.80;;;;;;5061847;28;38402;-52
2022/04/15 10:30:18;;;;;;;8.30;4.10;;;12.10;91.30;;;;;;5062387;28;38635;-52
2022/04/15 10:32:50;;;;;;;9.15;3.80;;;12.20;91.20;;;;;;5061967;28;36604;-52
2022/04/15 10:35:23;;;;;;;9.15;4.20;;;12.20;91.30;;;;;;5062232;28;37312;-59
2022/04/15 10:38:01;;;;;;;8.90;4.30;;;12.10;91.20;;;;;;5062265;28;38847;-51
2022/04/15 10:40:31;;;;;;;8.18;4.18;;;12.10;90.80;;;;;;5062341;28;38774;-49
2022/04/15 10:43:05;;;;;;;8.07;4.53;;;12.00;91.40;;;;;;5061183;28;36196;-52
2022/04/15 10:45:38;;;;;;;9.70;5.13;;;12.10;91.60;;;;;;5063202;28;38153;-51
2022/04/15 10:48:06;;;;;;;7.07;4.13;;;12.00;91.60;;;;;;5062066;28;38649;-53
2022/04/15 10:50:35;;;;;;;8.88;4.05;;;12.10;91.80;;;;;;5062028;28;37638;-52
2022/04/15 10:53:29;;;;;;;9.60;4.40;;;12.00;91.30;;;;;;5063018;28;36822;-51
2022/04/15 10:56:07;;;;;;;11.57;4.85;;;12.00;91.20;;;;;;5062790;28;38013;-52
2022/04/15 11:02:02;;;;;;;8.23;3.83;;;11.80;92.10;;;;;;5059338;28;39333;-59
2022/04/15 11:04:36;;;;;;;9.85;4.82;;;11.80;92.00;;;;;;5060887;28;39047;-59
2022/04/15 11:07:15;;;;;;;8.75;4.40;;;11.70;91.90;;;;;;5060548;28;38667;-59
2022/04/15 11:09:43;;;;;;;12.75;5.03;;;11.60;91.80;;;;;;5060632;28;38568;-52
2022/04/15 11:12:11;;;;;;;13.05;5.10;;;11.60;92.40;;;;;;5060317;28;38259;-53
2022/04/15 11:14:44;;;;;;;10.35;5.07;;;11.60;92.90;;;;;;5062343;28;37524;-59
2022/04/15 11:17:14;;;;;;;10.07;5.60;;;11.60;93.10;;;;;;5065197;28;37766;-59
2022/04/15 11:19:43;;;;;;;12.23;5.03;;;11.60;93.40;;;;;;5064848;28;38219;-58
2022/04/15 11:22:10;;;;;;;11.95;5.53;;;11.60;93.30;;;;;;5063353;28;37402;-59
2022/04/15 11:24:41;;;;;;;11.48;5.03;;;11.60;93.10;;;;;;5064680;28;37684;-59
2022/04/15 11:27:09;;;;;;;10.68;4.38;;;11.50;93.00;;;;;;5063737;28;38307;-58
2022/04/15 11:29:38;;;;;;;11.45;5.07;;;11.50;92.80;;;;;;5063477;28;38399;-59
2022/04/15 11:32:08;;;;;;;12.35;5.50;;;11.50;92.60;;;;;;5063824;28;38931;-59
2022/04/15 11:34:36;;;;;;;10.27;4.90;;;11.50;92.80;;;;;;5052749;28;37781;-59
2022/04/15 11:37:06;;;;;;;7.60;4.50;;;11.50;93.00;;;;;;5058734;28;41174;-59
2022/04/15 11:39:36;;;;;;;8.15;4.32;;;11.60;92.80;;;;;;5057811;28;36990;-59
2022/04/15 11:42:12;;;;;;;9.45;4.25;;;11.60;92.70;;;;;;5052674;28;37687;-57
2022/04/15 11:44:39;;;;;;;8.13;3.80;;;11.60;92.40;;;;;;5060834;28;35391;-59
2022/04/15 11:47:19;;;;;;;9.05;3.72;;;11.60;92.30;;;;;;5060468;28;37642;-59
2022/04/15 11:49:51;;;;;;;6.88;3.20;;;11.60;92.30;;;;;;5060840;28;39686;-58
2022/04/15 11:52:22;;;;;;;11.60;4.70;;;11.60;91.90;;;;;;5060359;28;39540;-58
2022/04/15 11:54:50;;;;;;;7.97;4.05;;;11.70;92.20;;;;;;5060171;28;36764;-52
2022/04/15 11:57:17;;;;;;;9.30;4.93;;;11.70;92.50;;;;;;5059774;28;39096;-53
2022/04/15 11:59:46;;;;;;;10.10;5.28;;;11.50;92.00;;;;;;5059644;28;40385;-51
2022/04/15 12:02:18;;;;;;;10.77;5.72;;;11.60;92.20;;;;;;5060431;28;41017;-52
2022/04/15 12:04:54;;;;;;;10.73;5.55;;;11.30;92.50;;;;;;5059556;28;36526;-53
2022/04/15 12:07:22;;;;;;;11.80;5.45;;;11.40;92.90;;;;;;5059664;28;37966;-52
2022/04/15 12:09:50;;;;;;;10.65;5.43;;;11.30;92.70;;;;;;5060656;28;36891;-52
2022/04/15 12:12:19;;;;;;;8.60;4.50;;;11.40;93.00;;;;;;5058239;28;38040;-53
2022/04/15 12:14:50;;;;;;;12.23;4.80;;;11.40;93.30;;;;;;5061290;28;37431;-51
2022/04/15 12:17:18;;;;;;;8.63;4.07;;;11.40;93.00;;;;;;5061139;28;36478;-59
2022/04/15 12:19:45;;;;;;;10.30;4.50;;;11.40;92.80;;;;;;5058881;28;39749;-59
2022/04/15 12:22:16;;;;;;;10.18;4.80;;;11.40;92.90;;;;;;5059524;28;38688;-59
2022/04/15 12:24:44;;;;;;;9.68;4.30;;;11.50;92.90;;;;;;5058132;28;36256;-58
2022/04/15 12:27:16;;;;;;;14.32;5.80;;;11.50;92.80;;;;;;5058665;28;36292;-59
2022/04/15 12:29:48;;;;;;;10.55;4.85;;;11.40;92.50;;;;;;5059288;28;38523;-59
2022/04/15 12:32:19;;;;;;;10.55;5.32;;;11.40;92.70;;;;;;5059143;28;37522;-60
2022/04/15 12:34:48;;;;;;;11.35;5.25;;;11.30;92.70;;;;;;5057891;28;37147;-58
2022/04/15 12:37:36;;;;;;;14.93;5.07;;;11.30;92.70;;;;;;5058765;28;38574;-59
2022/04/15 12:40:07;;;;;;;9.88;5.30;;;11.30;92.60;;;;;;5058517;28;37178;-59
2022/04/15 12:42:36;;;;;;;9.95;4.78;;;11.30;93.00;;;;;;5058499;28;38470;-58
2022/04/15 12:45:09;;;;;;;10.85;4.72;;;11.30;93.40;;;;;;5058333;28;38159;-59
2022/04/15 12:47:36;;;;;;;10.80;5.03;;;11.50;93.10;;;;;;5060809;28;38214;-59
2022/04/15 12:50:19;;;;;;;10.50;4.80;;;11.50;92.60;;;;;;5059220;28;37016;-58
2022/04/15 12:52:48;;;;;;;10.43;4.35;;;11.50;92.30;;;;;;5059525;28;38285;-59
2022/04/15 12:55:25;;;;;;;8.93;4.20;;;11.50;92.20;;;;;;5059238;28;36123;-59
2022/04/15 12:57:53;;;;;;;12.10;5.40;;;11.50;92.40;;;;;;5057458;28;38060;-59